Time;durP1;ratioP1;P1;durP2;ratioP2;P2;SDS_P1;SDS_P2;PMS_P1;PMS_P2;Temp;Humidity;BMP_temperature;BMP_pressure;BME280_temperature;BME280_humidity;BME280_pressure;Samples;Min_cycle;Max_cycle;Signal;HPM_P1;HPM_P2
2022/11/03 00:01:40;;;;;;;11.63;3.80;;;9.90;99.90;;;;;;5080047;28;20413;-67
2022/11/03 00:04:11;;;;;;;10.48;2.75;;;9.90;99.90;;;;;;5078112;28;20068;-65
2022/11/03 00:06:40;;;;;;;8.00;2.83;;;9.80;99.90;;;;;;5063395;28;20059;-69
2022/11/03 00:09:09;;;;;;;6.63;3.10;;;9.80;99.90;;;;;;5077429;28;20052;-65
2022/11/03 00:11:38;;;;;;;6.87;3.30;;;9.80;99.90;;;;;;5079727;28;20044;-66
2022/11/03 00:14:08;;;;;;;4.87;2.50;;;9.80;99.90;;;;;;5053746;28;20109;-71
2022/11/03 00:16:35;;;;;;;9.50;2.88;;;9.80;99.90;;;;;;5056972;28;20117;-66
2022/11/03 00:19:03;;;;;;;4.03;2.30;;;9.80;99.90;;;;;;5082488;28;20074;-68
2022/11/03 00:21:31;;;;;;;4.88;2.78;;;9.80;99.90;;;;;;5079709;28;20051;-64
2022/11/03 00:23:58;;;;;;;5.10;2.03;;;9.80;99.90;;;;;;5077934;28;20056;-68
2022/11/03 00:26:27;;;;;;;3.03;2.00;;;9.80;99.90;;;;;;5076866;28;20054;-69
2022/11/03 00:28:59;;;;;;;4.68;2.13;;;9.80;99.90;;;;;;5076257;28;20076;-65
2022/11/03 00:31:29;;;;;;;9.70;2.47;;;9.80;99.90;;;;;;5076434;28;20048;-64
2022/11/03 00:33:57;;;;;;;6.38;2.10;;;9.90;99.90;;;;;;5074721;28;20048;-71
2022/11/03 00:36:30;;;;;;;4.90;2.05;;;9.90;99.90;;;;;;5081054;28;20048;-66
2022/11/03 00:38:57;;;;;;;5.28;2.00;;;10.00;99.90;;;;;;5087673;28;20058;-65
2022/11/03 00:41:25;;;;;;;3.53;2.80;;;10.00;99.90;;;;;;5075999;28;20062;-68
2022/11/03 00:43:53;;;;;;;3.33;2.03;;;9.90;99.90;;;;;;5072569;28;20096;-65
2022/11/03 00:46:21;;;;;;;7.47;3.17;;;9.90;99.90;;;;;;5076492;28;20047;-66
2022/11/03 00:48:48;;;;;;;4.55;2.05;;;9.90;99.90;;;;;;5083296;28;20056;-63
2022/11/03 00:51:23;;;;;;;5.25;2.25;;;9.90;99.90;;;;;;5082883;28;20080;-69
2022/11/03 00:53:52;;;;;;;3.38;1.40;;;9.90;99.90;;;;;;5083953;28;20404;-66
2022/11/03 00:56:24;;;;;;;12.23;3.15;;;9.90;99.90;;;;;;5077495;28;20573;-65
2022/11/03 00:58:52;;;;;;;3.75;1.42;;;9.90;99.90;;;;;;5083478;28;20162;-65
2022/11/03 01:01:22;;;;;;;7.15;1.70;;;9.80;99.90;;;;;;5083694;28;20055;-66
2022/11/03 01:06:48;;;;;;;7.40;1.98;;;9.80;99.90;;;;;;5078167;28;20075;-70
2022/11/03 01:09:23;;;;;;;4.82;2.00;;;9.80;99.90;;;;;;5075483;28;20408;-64
2022/11/03 01:12:02;;;;;;;1.85;1.42;;;9.80;99.90;;;;;;5083291;28;20504;-65
2022/11/03 01:14:41;;;;;;;5.47;1.98;;;9.80;99.90;;;;;;5074091;28;20097;-67
2022/11/03 01:17:28;;;;;;;5.68;1.73;;;9.80;99.90;;;;;;5083976;28;20074;-66
2022/11/03 01:19:55;;;;;;;4.05;2.05;;;9.80;99.90;;;;;;5078153;28;20801;-65
2022/11/03 01:22:23;;;;;;;5.75;2.03;;;9.90;99.90;;;;;;5083604;28;20785;-72
2022/11/03 01:24:53;;;;;;;4.70;1.65;;;9.90;99.90;;;;;;5082435;28;20454;-67
2022/11/03 01:27:21;;;;;;;3.10;1.90;;;9.90;99.90;;;;;;5079238;28;20041;-67
2022/11/03 01:29:48;;;;;;;4.88;2.05;;;9.90;99.90;;;;;;5077806;28;21138;-70
2022/11/03 01:32:15;;;;;;;4.05;1.50;;;9.90;99.90;;;;;;5071305;28;20052;-67
2022/11/03 01:34:42;;;;;;;7.35;2.22;;;9.90;99.90;;;;;;5076075;28;20429;-66
2022/11/03 01:37:09;;;;;;;9.43;2.42;;;9.90;99.90;;;;;;5084210;28;20044;-68
2022/11/03 01:39:36;;;;;;;7.72;1.58;;;9.90;99.90;;;;;;5075038;28;20071;-66
2022/11/03 01:42:03;;;;;;;8.63;1.88;;;9.80;99.90;;;;;;5073540;28;20056;-67
2022/11/03 01:44:38;;;;;;;7.65;2.08;;;9.90;99.90;;;;;;5077575;28;20516;-69
2022/11/03 01:47:10;;;;;;;7.95;2.05;;;9.80;99.90;;;;;;5076466;28;20534;-68
2022/11/03 01:49:45;;;;;;;7.10;2.25;;;9.90;99.90;;;;;;5079801;28;20518;-74
2022/11/03 01:52:18;;;;;;;12.60;3.80;;;9.90;99.90;;;;;;5078258;28;20055;-66
2022/11/03 01:54:49;;;;;;;3.55;2.17;;;9.90;99.90;;;;;;5077981;28;20131;-67
2022/11/03 01:57:23;;;;;;;5.70;1.92;;;9.90;99.90;;;;;;5076036;28;20052;-68
2022/11/03 01:59:51;;;;;;;3.45;1.60;;;9.90;99.90;;;;;;5077407;28;20553;-69
2022/11/03 02:02:24;;;;;;;12.85;5.18;;;9.90;99.90;;;;;;5076105;28;20052;-70
2022/11/03 02:04:53;;;;;;;9.05;3.05;;;9.90;99.90;;;;;;5080630;28;20351;-65
2022/11/03 02:07:46;;;;;;;7.47;3.55;;;9.90;99.90;;;;;;5077197;28;20442;-72
2022/11/03 02:10:13;;;;;;;4.38;1.88;;;9.90;99.90;;;;;;5077260;28;20048;-66
2022/11/03 02:12:42;;;;;;;5.30;2.13;;;9.90;99.90;;;;;;5077142;28;20055;-65
2022/11/03 02:15:12;;;;;;;9.10;2.05;;;10.00;99.90;;;;;;5084041;28;20075;-66
2022/11/03 02:17:41;;;;;;;3.33;2.13;;;9.90;99.90;;;;;;5080980;28;20048;-66
2022/11/03 02:20:15;;;;;;;12.27;3.45;;;10.00;99.90;;;;;;5075541;28;20122;-68
2022/11/03 02:22:47;;;;;;;9.63;3.17;;;10.00;99.90;;;;;;5070240;28;20051;-65
2022/11/03 02:25:47;;;;;;;8.88;1.58;;;10.00;99.90;;;;;;5042962;28;1096832;-68
2022/11/03 02:28:17;;;;;;;7.73;1.60;;;10.00;99.90;;;;;;5077158;28;20052;-66
2022/11/03 02:30:48;;;;;;;2.90;2.40;;;10.00;99.90;;;;;;5075524;28;20930;-70
2022/11/03 02:33:18;;;;;;;8.27;1.50;;;10.00;99.90;;;;;;5070900;28;20044;-66
2022/11/03 02:36:06;;;;;;;5.63;1.83;;;10.00;99.90;;;;;;5080989;28;20142;-69
2022/11/03 02:38:38;;;;;;;7.60;2.63;;;10.00;99.90;;;;;;5078899;28;20428;-67
2022/11/03 02:41:08;;;;;;;6.80;2.85;;;10.00;99.90;;;;;;5077248;28;20048;-69
2022/11/03 02:43:35;;;;;;;8.38;2.72;;;10.00;99.90;;;;;;5081399;28;20044;-66
2022/11/03 02:46:04;;;;;;;11.60;1.95;;;10.00;99.90;;;;;;5067361;28;20051;-67
2022/11/03 02:48:31;;;;;;;5.95;1.90;;;10.00;99.90;;;;;;5067937;28;20561;-72
2022/11/03 02:50:58;;;;;;;13.82;4.63;;;10.00;99.90;;;;;;5069264;28;20056;-70
2022/11/03 02:53:27;;;;;;;9.00;1.77;;;10.00;99.90;;;;;;5075194;28;20075;-65
2022/11/03 02:56:00;;;;;;;5.97;2.63;;;10.00;99.90;;;;;;5081846;28;20051;-71
2022/11/03 02:59:01;;;;;;;8.00;2.95;;;10.00;99.90;;;;;;5079644;28;20055;-65
2022/11/03 03:01:48;;;;;;;12.18;2.88;;;10.00;99.90;;;;;;5067605;28;20048;-66
2022/11/03 03:04:39;;;;;;;9.55;1.45;;;10.00;99.90;;;;;;5066202;28;20047;-73
2022/11/03 03:07:25;;;;;;;12.05;2.50;;;10.00;99.90;;;;;;5078001;28;20110;-67
2022/11/03 03:10:07;;;;;;;31.60;3.20;;;10.00;99.90;;;;;;5074048;28;20097;-64
2022/11/03 03:12:37;;;;;;;10.43;1.98;;;10.00;99.90;;;;;;5080474;28;20051;-66
2022/11/03 03:15:07;;;;;;;12.98;3.55;;;10.00;99.90;;;;;;5081651;28;20085;-72
2022/11/03 03:17:50;;;;;;;14.73;4.75;;;9.90;99.90;;;;;;5079442;28;20051;-69
2022/11/03 03:20:23;;;;;;;10.45;1.75;;;9.90;99.90;;;;;;5075774;28;20425;-65
2022/11/03 03:23:08;;;;;;;9.80;1.85;;;10.00;99.90;;;;;;5080836;28;20611;-74
2022/11/03 03:25:52;;;;;;;5.80;2.65;;;9.90;99.90;;;;;;5076348;28;20055;-66
2022/11/03 03:28:27;;;;;;;12.52;2.10;;;9.90;99.90;;;;;;5075402;28;20893;-64
2022/11/03 03:30:57;;;;;;;6.70;2.08;;;9.90;99.90;;;;;;5077269;28;20056;-69
2022/11/03 03:33:26;;;;;;;11.43;2.00;;;9.90;99.90;;;;;;5074222;28;20048;-63
2022/11/03 03:35:56;;;;;;;3.80;2.05;;;9.90;99.90;;;;;;5078224;28;20132;-64
2022/11/03 03:38:28;;;;;;;7.53;2.72;;;9.80;99.90;;;;;;5072381;28;20048;-73
2022/11/03 03:40:58;;;;;;;5.75;1.60;;;9.80;99.90;;;;;;5070013;28;20066;-69
2022/11/03 03:43:27;;;;;;;10.93;3.00;;;9.80;99.90;;;;;;5075425;28;20055;-67
2022/11/03 03:45:59;;;;;;;13.97;2.17;;;9.80;99.90;;;;;;5075329;28;20063;-66
2022/11/03 03:48:26;;;;;;;8.75;3.22;;;9.80;99.90;;;;;;5076485;28;20281;-71
2022/11/03 03:50:54;;;;;;;13.30;3.00;;;9.80;99.90;;;;;;5076543;28;20052;-69
2022/11/03 03:53:21;;;;;;;7.25;3.45;;;9.80;99.90;;;;;;5075190;28;20047;-65
2022/11/03 03:55:51;;;;;;;10.48;2.75;;;9.80;99.90;;;;;;5080562;28;20054;-73
2022/11/03 03:58:18;;;;;;;9.45;1.65;;;9.70;99.90;;;;;;5072130;28;20154;-68
2022/11/03 04:00:45;;;;;;;9.35;1.52;;;9.70;99.90;;;;;;5071619;28;20051;-67
2022/11/03 04:03:16;;;;;;;15.52;3.42;;;9.70;99.90;;;;;;5079178;28;20135;-65
2022/11/03 04:05:44;;;;;;;7.57;2.08;;;9.70;99.90;;;;;;5078854;28;20131;-65
2022/11/03 04:08:12;;;;;;;8.55;3.25;;;9.70;99.90;;;;;;5075400;28;20056;-66
2022/11/03 04:10:39;;;;;;;10.43;2.75;;;9.70;99.90;;;;;;5081697;28;20055;-68
2022/11/03 04:24:01;;;;;;;13.38;2.95;;;9.70;99.90;;;;;;5073479;28;20044;-64
2022/11/03 04:26:28;;;;;;;10.05;2.45;;;9.70;99.90;;;;;;5077801;28;20055;-65
2022/11/03 04:28:57;;;;;;;8.30;2.88;;;9.60;99.90;;;;;;5076172;28;20612;-67
2022/11/03 04:31:26;;;;;;;7.82;1.60;;;9.60;99.90;;;;;;5078358;28;20552;-64
2022/11/03 04:33:53;;;;;;;7.65;2.00;;;9.60;99.90;;;;;;5055935;28;20507;-65
2022/11/03 04:36:24;;;;;;;6.35;1.50;;;9.60;99.90;;;;;;5078022;28;20412;-68
2022/11/03 04:38:51;;;;;;;11.70;2.20;;;9.60;99.90;;;;;;5074634;28;20230;-67
2022/11/03 04:41:30;;;;;;;9.00;2.00;;;9.60;99.90;;;;;;5072590;28;20686;-66
2022/11/03 04:43:57;;;;;;;5.68;1.95;;;9.60;99.90;;;;;;5065484;28;20552;-67
2022/11/03 04:46:26;;;;;;;4.35;1.95;;;9.60;99.90;;;;;;5081435;28;20151;-64
2022/11/03 04:48:57;;;;;;;12.35;2.00;;;9.60;99.90;;;;;;5074503;28;20056;-69
2022/11/03 04:51:28;;;;;;;18.20;4.03;;;9.60;99.90;;;;;;5068892;28;20071;-72
2022/11/03 04:54:01;;;;;;;7.13;2.08;;;9.60;99.90;;;;;;5070403;28;20513;-69
2022/11/03 04:56:28;;;;;;;9.10;2.05;;;9.60;99.90;;;;;;5077587;28;20105;-68
2022/11/03 04:58:57;;;;;;;13.70;3.55;;;9.60;99.90;;;;;;5076258;28;20058;-74
2022/11/03 05:01:25;;;;;;;9.70;2.70;;;9.70;99.90;;;;;;5073437;28;20048;-67
2022/11/03 05:03:54;;;;;;;11.73;2.70;;;9.70;99.90;;;;;;5074251;28;20142;-66
2022/11/03 05:06:26;;;;;;;12.23;2.67;;;9.70;99.90;;;;;;5077049;28;20564;-71
2022/11/03 05:09:01;;;;;;;10.32;2.30;;;9.70;99.90;;;;;;5062839;28;20056;-66
2022/11/03 05:11:35;;;;;;;9.25;1.98;;;9.70;99.90;;;;;;5072239;28;20058;-75
2022/11/03 05:14:24;;;;;;;9.50;1.83;;;9.70;99.90;;;;;;5065067;28;20047;-69
2022/11/03 05:16:52;;;;;;;14.23;3.00;;;9.70;99.90;;;;;;5061615;28;20138;-70
2022/11/03 05:19:38;;;;;;;8.23;1.88;;;9.70;99.90;;;;;;5066285;28;20051;-67
2022/11/03 05:22:14;;;;;;;11.38;4.30;;;9.70;99.90;;;;;;5077783;28;20052;-66
2022/11/03 05:24:41;;;;;;;6.78;2.08;;;9.60;99.90;;;;;;5078308;28;20056;-69
2022/11/03 05:27:17;;;;;;;8.77;3.20;;;9.60;99.90;;;;;;5065598;28;20583;-72
2022/11/03 05:29:44;;;;;;;9.93;2.20;;;9.60;99.90;;;;;;5062545;28;20056;-70
2022/11/03 05:32:17;;;;;;;10.43;2.30;;;9.50;99.90;;;;;;5069524;28;20161;-71
2022/11/03 05:34:47;;;;;;;8.02;2.08;;;9.50;99.90;;;;;;5076290;28;20194;-71
2022/11/03 05:37:34;;;;;;;9.07;1.85;;;9.50;99.90;;;;;;5065693;28;20071;-67
2022/11/03 05:40:19;;;;;;;5.93;2.80;;;9.50;99.90;;;;;;5057569;28;20048;-72
2022/11/03 05:42:52;;;;;;;15.05;2.95;;;9.50;99.90;;;;;;5076445;28;20056;-70
2022/11/03 05:45:31;;;;;;;9.65;3.75;;;9.50;99.90;;;;;;5072985;28;20051;-71
2022/11/03 05:48:00;;;;;;;7.07;1.83;;;9.50;99.90;;;;;;5074396;28;20829;-70
2022/11/03 05:50:29;;;;;;;11.95;3.03;;;9.40;99.90;;;;;;5078876;28;20542;-70
2022/11/03 05:53:10;;;;;;;5.95;2.70;;;9.40;99.90;;;;;;5069995;28;20479;-73
2022/11/03 05:55:38;;;;;;;8.57;4.63;;;9.40;99.90;;;;;;5069190;28;20807;-72
2022/11/03 05:58:34;;;;;;;11.73;4.57;;;9.40;99.90;;;;;;5074140;28;20040;-71
2022/11/03 06:01:12;;;;;;;17.63;3.10;;;9.40;99.90;;;;;;5076672;28;20082;-72
2022/11/03 06:03:39;;;;;;;12.25;2.20;;;9.30;99.90;;;;;;5064442;28;20053;-68
2022/11/03 06:06:21;;;;;;;10.50;2.55;;;9.30;99.90;;;;;;5047986;28;20056;-67
2022/11/03 06:08:52;;;;;;;29.98;20.35;;;9.30;99.90;;;;;;5068887;28;20651;-68
2022/11/03 06:11:30;;;;;;;28.35;14.05;;;9.30;99.90;;;;;;5067372;28;20223;-69
2022/11/03 06:13:58;;;;;;;10.00;2.63;;;9.20;99.90;;;;;;5070155;28;20390;-67
2022/11/03 06:16:37;;;;;;;11.10;3.20;;;9.30;99.90;;;;;;5078632;28;20052;-66
2022/11/03 06:19:22;;;;;;;59.17;40.42;;;9.20;99.90;;;;;;5081356;28;20160;-69
2022/11/03 06:21:51;;;;;;;41.28;26.15;;;9.20;99.90;;;;;;5083350;28;20051;-68
2022/11/03 06:24:21;;;;;;;24.90;13.52;;;9.20;99.90;;;;;;5080514;28;20044;-68
2022/11/03 06:26:49;;;;;;;28.38;16.15;;;9.10;99.90;;;;;;5079852;28;20086;-69
2022/11/03 06:29:18;;;;;;;13.88;7.30;;;9.10;99.90;;;;;;5082993;28;20040;-69
2022/11/03 06:31:48;;;;;;;28.42;20.75;;;9.10;99.90;;;;;;5085043;28;20769;-68
2022/11/03 06:34:27;;;;;;;23.00;8.02;;;9.10;99.90;;;;;;5079427;28;20226;-69
2022/11/03 06:36:56;;;;;;;9.73;5.65;;;9.10;99.90;;;;;;5085913;28;20062;-68
2022/11/03 06:39:23;;;;;;;13.35;9.45;;;9.10;99.90;;;;;;5083226;28;20040;-67
2022/11/03 06:41:51;;;;;;;21.95;15.63;;;9.10;99.90;;;;;;5076879;28;20093;-68
2022/11/03 06:44:23;;;;;;;31.95;15.25;;;9.10;99.90;;;;;;5082694;28;20056;-67
2022/11/03 06:46:55;;;;;;;24.05;11.82;;;9.10;99.90;;;;;;5089298;28;20043;-68
2022/11/03 06:49:29;;;;;;;27.55;14.75;;;9.10;99.90;;;;;;5076448;28;21287;-68
2022/11/03 06:52:01;;;;;;;20.48;10.27;;;9.10;99.90;;;;;;5081842;28;20138;-68
2022/11/03 06:54:28;;;;;;;12.27;4.57;;;9.10;99.90;;;;;;5080927;28;20044;-68
2022/11/03 06:56:55;;;;;;;6.95;2.25;;;9.10;99.90;;;;;;5081920;28;20055;-68
2022/11/03 06:59:23;;;;;;;10.65;3.00;;;9.10;99.90;;;;;;5081502;28;20059;-67
2022/11/03 07:01:54;;;;;;;7.32;2.63;;;9.00;99.90;;;;;;5080086;28;20048;-68
2022/11/03 07:04:27;;;;;;;5.93;3.33;;;9.00;99.90;;;;;;5080089;28;21804;-67
2022/11/03 07:06:59;;;;;;;4.80;2.28;;;8.90;99.90;;;;;;5084961;28;20048;-67
2022/11/03 07:09:26;;;;;;;6.43;2.35;;;8.80;99.90;;;;;;5086156;28;20048;-67
2022/11/03 07:11:58;;;;;;;8.90;2.35;;;8.70;99.90;;;;;;5081445;28;20178;-67
2022/11/03 07:14:31;;;;;;;5.13;2.13;;;8.70;99.90;;;;;;5082913;28;20142;-68
2022/11/03 07:17:02;;;;;;;8.85;3.95;;;8.60;99.90;;;;;;5088585;28;20458;-75
2022/11/03 07:19:40;;;;;;;4.50;2.25;;;8.50;99.90;;;;;;5082371;28;20047;-67
2022/11/03 07:22:16;;;;;;;8.25;2.92;;;8.50;99.90;;;;;;5089285;28;20043;-66
2022/11/03 07:24:45;;;;;;;5.25;3.00;;;8.50;99.90;;;;;;5060092;28;20137;-67
2022/11/03 07:27:37;;;;;;;12.50;2.95;;;8.50;99.90;;;;;;5085896;28;20067;-67
2022/11/03 07:30:18;;;;;;;9.50;3.25;;;8.50;99.90;;;;;;5077087;28;20558;-69
2022/11/03 07:32:48;;;;;;;10.20;2.97;;;8.50;99.90;;;;;;5080864;28;20466;-67
2022/11/03 07:35:24;;;;;;;8.10;3.03;;;8.50;99.90;;;;;;5084601;28;20066;-67
2022/11/03 07:37:52;;;;;;;14.55;3.20;;;8.50;99.90;;;;;;5083620;28;20105;-67
2022/11/03 07:40:24;;;;;;;10.27;2.38;;;8.60;99.90;;;;;;5080358;28;20055;-67
2022/11/03 07:42:56;;;;;;;12.95;2.55;;;8.70;99.90;;;;;;5084737;28;20054;-68
2022/11/03 07:45:42;;;;;;;8.85;2.60;;;8.80;99.90;;;;;;5083400;28;20075;-67
2022/11/03 07:48:32;;;;;;;13.30;3.35;;;8.90;99.90;;;;;;5085184;28;20060;-67
2022/11/03 07:51:05;;;;;;;5.90;2.67;;;9.00;99.90;;;;;;5081265;28;20055;-67
2022/11/03 07:53:38;;;;;;;11.63;2.85;;;9.10;99.90;;;;;;5083002;28;20046;-67
2022/11/03 07:56:20;;;;;;;11.52;2.45;;;9.20;99.90;;;;;;5077587;28;20048;-67
2022/11/03 07:59:07;;;;;;;6.63;2.35;;;9.30;99.90;;;;;;5079670;28;20068;-67
2022/11/03 08:01:36;;;;;;;11.18;3.70;;;9.40;99.90;;;;;;5082240;28;20052;-67
2022/11/03 08:04:07;;;;;;;13.63;2.63;;;9.40;99.90;;;;;;5083418;28;20052;-68
2022/11/03 08:06:34;;;;;;;8.02;2.00;;;9.50;99.90;;;;;;5089173;28;20055;-67
2022/11/03 08:09:01;;;;;;;7.95;2.58;;;9.50;99.90;;;;;;5079381;28;20059;-67
2022/11/03 08:11:28;;;;;;;12.20;2.42;;;9.60;99.90;;;;;;5084506;28;20040;-68
2022/11/03 08:13:56;;;;;;;7.38;2.35;;;9.70;99.90;;;;;;5082556;28;20051;-67
2022/11/03 08:16:23;;;;;;;10.95;2.80;;;9.80;99.90;;;;;;5086317;28;20054;-67
2022/11/03 08:18:50;;;;;;;18.15;4.05;;;9.90;99.90;;;;;;5081333;28;20098;-67
2022/11/03 08:21:16;;;;;;;8.98;3.15;;;10.00;99.90;;;;;;5088051;28;20629;-69
2022/11/03 08:23:43;;;;;;;8.88;2.85;;;10.10;99.90;;;;;;5088265;28;20528;-67
2022/11/03 08:26:14;;;;;;;5.72;2.17;;;10.10;99.90;;;;;;5082429;28;20119;-67
2022/11/03 08:28:41;;;;;;;21.10;3.40;;;10.10;99.90;;;;;;5083282;28;20522;-67
2022/11/03 08:31:08;;;;;;;7.57;2.20;;;10.10;99.90;;;;;;5085460;28;20051;-67
2022/11/03 08:33:38;;;;;;;6.95;2.42;;;10.20;99.90;;;;;;5089769;28;20040;-67
2022/11/03 08:36:07;;;;;;;6.32;2.22;;;10.20;99.90;;;;;;5083257;28;20139;-67
2022/11/03 08:38:34;;;;;;;10.75;4.05;;;10.20;99.90;;;;;;5084064;28;20048;-68
2022/11/03 08:41:01;;;;;;;14.07;3.63;;;10.30;99.90;;;;;;5089291;28;22097;-69
2022/11/03 08:43:28;;;;;;;12.95;3.17;;;10.30;99.90;;;;;;5089313;28;20378;-67
2022/11/03 08:45:55;;;;;;;6.88;3.15;;;10.40;99.90;;;;;;5088722;28;20066;-69
2022/11/03 08:48:35;;;;;;;10.18;2.67;;;10.40;99.90;;;;;;5086836;28;20064;-67
2022/11/03 08:51:02;;;;;;;9.13;2.05;;;10.50;99.90;;;;;;5081935;28;20048;-68
2022/11/03 08:53:29;;;;;;;12.70;2.72;;;10.60;99.90;;;;;;5084171;28;20043;-67
2022/11/03 08:55:56;;;;;;;14.27;3.17;;;10.60;99.90;;;;;;5087381;28;20048;-67
2022/11/03 08:58:23;;;;;;;8.30;2.25;;;10.80;99.90;;;;;;5087437;28;20058;-67
2022/11/03 09:00:50;;;;;;;11.63;3.28;;;10.80;99.90;;;;;;5082412;28;20055;-67
2022/11/03 09:03:17;;;;;;;8.70;2.22;;;10.80;99.90;;;;;;5088300;28;20093;-68
2022/11/03 09:05:44;;;;;;;6.07;2.47;;;10.80;99.90;;;;;;5086079;28;20048;-67
2022/11/03 09:08:11;;;;;;;8.35;3.05;;;10.80;99.90;;;;;;5083434;28;20044;-67
2022/11/03 09:10:58;;;;;;;15.32;3.13;;;10.80;99.90;;;;;;5074334;28;20374;-67
2022/11/03 09:13:25;;;;;;;14.10;2.88;;;10.60;99.90;;;;;;5088427;28;20506;-67
2022/11/03 09:15:52;;;;;;;10.18;2.03;;;10.60;99.90;;;;;;5084937;28;20071;-67
2022/11/03 09:18:19;;;;;;;9.05;2.85;;;10.50;99.90;;;;;;5082542;28;20404;-67
2022/11/03 09:20:46;;;;;;;6.68;1.98;;;10.50;99.90;;;;;;5088517;28;20074;-67
2022/11/03 09:23:12;;;;;;;33.40;4.93;;;10.50;99.90;;;;;;5078304;28;20048;-67
2022/11/03 09:25:39;;;;;;;9.68;2.05;;;10.60;99.90;;;;;;5086498;28;20048;-67
2022/11/03 09:28:06;;;;;;;16.52;2.90;;;10.60;99.90;;;;;;5081585;28;20690;-67
2022/11/03 09:30:34;;;;;;;12.20;2.33;;;10.70;99.90;;;;;;5087296;28;20114;-67
2022/11/03 09:33:01;;;;;;;10.07;2.58;;;10.70;99.90;;;;;;5087709;28;20146;-68
2022/11/03 09:35:27;;;;;;;9.82;1.98;;;10.70;99.90;;;;;;5080959;28;20087;-68
2022/11/03 09:37:54;;;;;;;14.18;5.00;;;10.70;99.90;;;;;;5087568;28;20048;-67
2022/11/03 09:40:23;;;;;;;11.40;4.28;;;10.70;99.90;;;;;;5088101;28;20079;-67
2022/11/03 09:42:51;;;;;;;16.73;4.80;;;10.70;99.90;;;;;;5091377;28;20047;-67
2022/11/03 09:45:18;;;;;;;4.80;1.35;;;10.80;99.90;;;;;;5088857;28;20072;-67
2022/11/03 09:47:46;;;;;;;7.10;2.15;;;10.80;99.90;;;;;;5086732;28;20047;-67
2022/11/03 09:50:16;;;;;;;12.30;2.58;;;10.80;99.90;;;;;;5082435;28;20054;-67
2022/11/03 09:52:43;;;;;;;17.73;2.75;;;10.80;99.90;;;;;;5092117;28;20045;-67
2022/11/03 09:55:24;;;;;;;6.80;1.95;;;10.90;99.90;;;;;;5084946;28;20048;-67
2022/11/03 09:58:00;;;;;;;11.60;2.40;;;10.90;99.90;;;;;;5081099;28;20052;-68
2022/11/03 10:00:27;;;;;;;9.35;2.97;;;10.90;99.90;;;;;;5083908;28;20117;-67
2022/11/03 10:02:54;;;;;;;8.45;2.20;;;11.00;99.90;;;;;;5088025;28;20058;-67
2022/11/03 10:05:26;;;;;;;8.13;2.40;;;11.00;99.90;;;;;;5064241;28;20134;-66
2022/11/03 10:08:05;;;;;;;16.90;3.65;;;11.10;99.90;;;;;;5086261;28;20157;-67
2022/11/03 10:10:34;;;;;;;8.85;2.33;;;11.10;99.90;;;;;;5091989;28;20062;-67
2022/11/03 10:13:01;;;;;;;8.00;2.88;;;11.10;99.90;;;;;;5086173;28;20514;-68
2022/11/03 10:15:28;;;;;;;15.35;4.28;;;11.10;99.90;;;;;;5082875;28;20555;-67
2022/11/03 10:17:56;;;;;;;12.52;3.15;;;11.10;99.90;;;;;;5082245;28;20072;-67
2022/11/03 10:20:23;;;;;;;11.15;2.40;;;11.10;99.90;;;;;;5086591;28;20072;-67
2022/11/03 10:22:52;;;;;;;6.70;2.50;;;11.10;99.90;;;;;;5083250;28;20430;-67
2022/11/03 10:25:37;;;;;;;6.90;2.28;;;11.10;99.90;;;;;;5091891;28;20046;-67
2022/11/03 10:28:16;;;;;;;9.95;2.30;;;11.10;99.90;;;;;;5080850;28;20162;-68
2022/11/03 10:31:05;;;;;;;9.85;2.33;;;11.10;99.90;;;;;;5088961;28;20186;-69
2022/11/03 10:33:50;;;;;;;17.02;4.65;;;11.20;99.90;;;;;;5087571;28;20424;-67
2022/11/03 10:36:17;;;;;;;8.75;1.70;;;11.20;99.90;;;;;;5083824;28;20047;-68
2022/11/03 10:38:46;;;;;;;12.10;2.35;;;11.30;99.90;;;;;;5081853;28;20083;-67
2022/11/03 10:41:16;;;;;;;10.60;2.67;;;11.40;99.90;;;;;;5089129;28;20098;-68
2022/11/03 10:43:57;;;;;;;11.73;2.90;;;11.40;99.90;;;;;;5083360;28;20134;-67
2022/11/03 10:46:24;;;;;;;13.20;3.78;;;11.40;99.90;;;;;;5085703;28;20310;-67
2022/11/03 10:49:15;;;;;;;5.18;2.47;;;11.50;99.90;;;;;;5081004;28;20494;-67
2022/11/03 10:51:45;;;;;;;8.18;2.55;;;11.50;99.90;;;;;;5087195;28;20052;-67
2022/11/03 10:54:15;;;;;;;6.45;2.10;;;11.50;99.90;;;;;;5077325;28;20123;-69
2022/11/03 10:56:43;;;;;;;22.15;2.08;;;11.50;99.90;;;;;;5081774;28;20135;-67
2022/11/03 10:59:19;;;;;;;13.07;2.90;;;11.50;99.90;;;;;;5082830;28;20040;-68
2022/11/03 11:01:46;;;;;;;7.75;2.30;;;11.50;99.90;;;;;;5081499;28;20051;-67
2022/11/03 11:04:16;;;;;;;9.32;1.80;;;11.50;99.90;;;;;;5084714;28;20044;-68
2022/11/03 11:06:44;;;;;;;8.30;2.08;;;11.60;99.90;;;;;;5087491;28;20051;-67
2022/11/03 11:09:19;;;;;;;9.48;2.10;;;11.50;99.90;;;;;;5084106;28;20048;-67
2022/11/03 11:12:22;;;;;;;10.80;2.58;;;11.50;99.90;;;;;;5089273;28;20039;-67
2022/11/03 11:15:01;;;;;;;9.45;2.40;;;11.50;99.90;;;;;;5082383;28;20044;-68
2022/11/03 11:17:43;;;;;;;8.45;3.10;;;11.60;99.90;;;;;;5053475;28;20174;-67
2022/11/03 11:20:22;;;;;;;11.10;2.38;;;11.60;99.90;;;;;;5083689;28;20057;-69
2022/11/03 11:22:50;;;;;;;8.98;2.28;;;11.70;99.90;;;;;;5069760;28;20627;-67
2022/11/03 11:25:17;;;;;;;11.70;2.67;;;11.70;99.90;;;;;;5085966;28;20153;-67
2022/11/03 11:27:44;;;;;;;14.25;2.55;;;11.70;99.90;;;;;;5087208;28;20102;-67
2022/11/03 11:30:17;;;;;;;9.18;3.17;;;11.70;99.90;;;;;;5081409;28;20050;-67
2022/11/03 11:32:44;;;;;;;7.53;2.30;;;11.70;99.90;;;;;;5085788;28;20068;-67
2022/11/03 11:35:17;;;;;;;7.28;2.53;;;11.80;99.90;;;;;;5085622;28;20043;-68
2022/11/03 11:37:44;;;;;;;9.95;2.97;;;11.70;99.90;;;;;;5083891;28;20051;-68
2022/11/03 11:40:34;;;;;;;6.70;2.17;;;11.70;99.90;;;;;;5080691;28;20079;-66
2022/11/03 11:43:01;;;;;;;8.40;2.85;;;11.60;99.90;;;;;;5063183;28;20143;-68
2022/11/03 11:46:05;;;;;;;11.23;3.58;;;11.60;99.90;;;;;;5085806;28;20071;-66
2022/11/03 11:48:33;;;;;;;9.68;2.90;;;11.70;99.90;;;;;;5081590;28;20435;-67
2022/11/03 11:51:01;;;;;;;7.15;2.63;;;11.70;99.90;;;;;;5088809;28;20474;-68
2022/11/03 11:53:36;;;;;;;7.43;2.42;;;11.60;99.90;;;;;;5083409;28;20489;-68
2022/11/03 11:56:03;;;;;;;6.00;2.63;;;11.60;99.90;;;;;;5078392;28;20055;-68
2022/11/03 11:58:37;;;;;;;13.02;3.58;;;11.60;99.90;;;;;;5083578;28;20052;-67
2022/11/03 12:01:28;;;;;;;7.55;2.65;;;11.60;99.90;;;;;;5088278;28;20072;-67
2022/11/03 12:04:17;;;;;;;7.53;2.85;;;11.60;99.90;;;;;;5077705;28;20372;-67
2022/11/03 12:06:49;;;;;;;6.85;2.80;;;11.70;99.90;;;;;;5081328;28;20050;-68
2022/11/03 12:09:19;;;;;;;5.65;2.10;;;11.80;99.90;;;;;;5074461;28;20044;-67
2022/11/03 12:11:55;;;;;;;14.43;4.30;;;11.80;99.90;;;;;;5084488;28;20043;-68
2022/11/03 12:14:31;;;;;;;7.68;2.30;;;11.90;99.90;;;;;;5081609;28;20158;-67
2022/11/03 12:17:18;;;;;;;10.88;2.67;;;11.80;99.90;;;;;;5080979;28;20669;-67
2022/11/03 12:19:52;;;;;;;14.88;3.33;;;11.80;99.90;;;;;;5088891;28;20087;-67
2022/11/03 12:22:22;;;;;;;12.00;3.38;;;11.90;99.90;;;;;;5087386;28;20047;-67
2022/11/03 12:24:54;;;;;;;10.60;3.17;;;11.90;99.90;;;;;;5087103;28;20090;-67
2022/11/03 12:27:24;;;;;;;14.70;3.10;;;11.90;99.90;;;;;;5094162;28;20039;-67
2022/11/03 12:29:56;;;;;;;9.90;2.72;;;11.90;99.90;;;;;;5083994;28;20052;-67
2022/11/03 12:32:23;;;;;;;11.82;3.75;;;11.90;99.90;;;;;;5084344;28;20490;-67
2022/11/03 12:35:03;;;;;;;12.30;4.85;;;11.90;99.90;;;;;;5090464;28;20056;-67
2022/11/03 12:37:30;;;;;;;13.10;2.78;;;12.00;99.90;;;;;;5089120;28;20101;-67
2022/11/03 12:39:57;;;;;;;7.40;2.22;;;11.90;99.90;;;;;;5086746;28;20048;-68
2022/11/03 12:42:24;;;;;;;11.10;2.80;;;11.80;99.90;;;;;;5088906;28;20044;-66
2022/11/03 12:44:52;;;;;;;7.82;4.03;;;11.80;99.90;;;;;;5090470;28;20052;-69
2022/11/03 12:47:19;;;;;;;10.73;3.53;;;11.80;99.90;;;;;;5086261;28;20052;-67
2022/11/03 12:49:46;;;;;;;11.38;2.42;;;11.80;99.90;;;;;;5089535;28;20040;-67
2022/11/03 12:52:14;;;;;;;8.68;2.72;;;11.70;99.90;;;;;;5084760;28;20355;-67
2022/11/03 12:54:41;;;;;;;13.48;3.53;;;11.70;99.90;;;;;;5082022;28;20438;-67
2022/11/03 12:57:08;;;;;;;8.88;3.00;;;11.80;99.90;;;;;;5090841;28;20051;-67
2022/11/03 12:59:35;;;;;;;11.02;2.83;;;11.70;99.90;;;;;;5082402;28;20076;-67
2022/11/03 13:02:02;;;;;;;6.10;1.58;;;11.70;99.90;;;;;;5085216;28;20078;-68
2022/11/03 13:04:29;;;;;;;4.78;1.85;;;11.70;99.90;;;;;;5085062;28;20086;-66
2022/11/03 13:06:56;;;;;;;12.60;3.85;;;11.70;99.90;;;;;;5085461;28;20140;-67
2022/11/03 13:09:23;;;;;;;9.30;2.20;;;11.60;99.90;;;;;;5087932;28;20085;-67
2022/11/03 13:14:35;;;;;;;9.77;2.85;;;11.70;99.90;;;;;;5085088;28;20709;-67
2022/11/03 13:17:02;;;;;;;6.55;1.67;;;11.60;99.90;;;;;;5085286;28;20040;-68
2022/11/03 13:19:29;;;;;;;15.73;3.15;;;11.60;99.90;;;;;;5071466;28;20051;-68
2022/11/03 13:21:56;;;;;;;19.75;2.72;;;11.60;99.90;;;;;;5087563;28;20508;-67
2022/11/03 13:24:23;;;;;;;15.77;3.30;;;11.60;99.90;;;;;;5084827;28;20043;-67
2022/11/03 13:26:50;;;;;;;24.85;4.38;;;11.60;99.90;;;;;;5083333;28;20187;-67
2022/11/03 13:29:17;;;;;;;8.95;2.47;;;11.50;99.90;;;;;;5088637;28;20044;-67